createdAt,value
2022-12-22T00:00:25.132Z,46.50
2022-12-22T00:03:15.563Z,47.33
2022-12-22T00:06:05.779Z,52.25
2022-12-22T00:09:00.268Z,46.22
2022-12-22T00:11:54.190Z,52.40
2022-12-22T00:14:44.466Z,47.47
2022-12-22T00:17:46.025Z,51.88
2022-12-22T00:20:38.950Z,54.30
2022-12-22T00:23:29.828Z,46.10
2022-12-22T00:26:20.347Z,50.35
2022-12-22T00:29:11.128Z,48.65
2022-12-22T00:32:01.666Z,49.78
2022-12-22T00:35:00.484Z,45.75
2022-12-22T00:37:52.928Z,52.55
2022-12-22T00:40:47.244Z,51.03
2022-12-22T00:43:37.432Z,49.83
2022-12-22T00:46:30.281Z,50.90
2022-12-22T00:49:21.182Z,55.88
2022-12-22T00:52:11.534Z,51.13
2022-12-22T00:55:02.079Z,48.55
2022-12-22T00:57:52.342Z,46.33
2022-12-22T01:00:42.629Z,51.63
2022-12-22T01:03:33.151Z,46.15
2022-12-22T01:06:28.282Z,54.03
2022-12-22T01:09:19.118Z,57.55
2022-12-22T01:12:09.350Z,55.45
2022-12-22T01:15:02.710Z,53.70
2022-12-22T01:17:52.821Z,57.67
2022-12-22T01:20:43.225Z,58.38
2022-12-22T01:23:33.419Z,55.53
2022-12-22T01:26:27.887Z,52.03
2022-12-22T01:29:18.092Z,48.70
2022-12-22T01:32:08.455Z,53.97
2022-12-22T01:34:59.385Z,50.85
2022-12-22T01:37:49.375Z,51.50
2022-12-22T01:40:43.639Z,47.67
2022-12-22T01:43:41.053Z,57.55
2022-12-22T01:46:42.048Z,56.70
2022-12-22T01:49:37.481Z,54.38
2022-12-22T01:52:31.003Z,53.15
2022-12-22T01:55:26.686Z,53.25
2022-12-22T02:01:07.347Z,53.45
2022-12-22T02:03:57.446Z,53.58
2022-12-22T02:07:00.041Z,52.78
2022-12-22T02:10:08.912Z,49.88
2022-12-22T02:13:17.919Z,53.95
2022-12-22T02:16:17.268Z,53.30
2022-12-22T02:19:18.363Z,49.95
2022-12-22T02:22:47.278Z,56.38
2022-12-22T02:25:49.411Z,53.22
2022-12-22T02:28:40.714Z,51.03
2022-12-22T02:31:31.244Z,51.75
2022-12-22T02:34:22.345Z,51.83
2022-12-22T02:37:29.695Z,51.30
2022-12-22T02:40:38.821Z,53.58
2022-12-22T02:43:50.541Z,49.10
2022-12-22T02:46:53.815Z,50.00
2022-12-22T02:50:27.896Z,52.47
2022-12-22T02:53:20.432Z,50.30
2022-12-22T02:56:20.990Z,51.33
2022-12-22T02:59:11.735Z,43.72
2022-12-22T03:02:05.277Z,46.78
2022-12-22T03:04:55.797Z,47.67
2022-12-22T03:07:45.845Z,47.83
2022-12-22T03:10:36.149Z,44.03
2022-12-22T03:13:26.576Z,55.17
2022-12-22T03:16:16.748Z,62.97
2022-12-22T03:19:06.899Z,55.88
2022-12-22T03:21:57.195Z,55.80
2022-12-22T03:24:47.438Z,49.88
2022-12-22T03:27:19.106Z,58.47
2022-12-22T03:29:50.790Z,51.78
2022-12-22T03:32:22.543Z,52.97
2022-12-22T03:34:54.228Z,52.33
2022-12-22T03:37:25.908Z,52.13
2022-12-22T03:39:57.554Z,53.60
2022-12-22T03:42:47.782Z,46.88
2022-12-22T03:45:38.064Z,51.90
2022-12-22T03:48:12.062Z,48.85
2022-12-22T03:50:43.903Z,47.60
2022-12-22T03:53:15.626Z,47.50
2022-12-22T03:55:47.271Z,49.58
2022-12-22T03:58:18.982Z,46.25
2022-12-22T04:00:50.804Z,44.13
2022-12-22T04:03:22.622Z,45.95
2022-12-22T04:05:54.460Z,40.75
2022-12-22T04:08:26.165Z,41.50
2022-12-22T04:11:16.516Z,43.53
2022-12-22T04:13:48.195Z,39.85
2022-12-22T04:16:19.948Z,43.97
2022-12-22T04:18:52.047Z,43.97
2022-12-22T04:21:24.399Z,41.88
2022-12-22T04:23:56.147Z,35.92
2022-12-22T04:26:27.901Z,37.80
2022-12-22T04:28:59.718Z,37.13
2022-12-22T04:31:31.492Z,36.10
2022-12-22T04:34:03.752Z,34.58
2022-12-22T04:36:35.545Z,31.83
2022-12-22T04:39:07.329Z,30.80
2022-12-22T04:41:39.034Z,27.23
2022-12-22T04:44:10.760Z,31.48
2022-12-22T04:46:42.479Z,27.15
2022-12-22T04:49:14.183Z,27.30
2022-12-22T04:51:45.907Z,23.65
2022-12-22T04:54:17.639Z,26.35
2022-12-22T04:56:50.485Z,28.52
2022-12-22T04:59:22.550Z,28.17
2022-12-22T05:01:57.324Z,29.63
2022-12-22T05:04:29.160Z,26.27
2022-12-22T05:07:00.953Z,26.27
2022-12-22T05:09:32.701Z,26.00
2022-12-22T05:12:27.591Z,25.42
2022-12-22T05:14:59.337Z,21.77
2022-12-22T05:17:31.046Z,25.83
2022-12-22T05:20:03.033Z,24.38
2022-12-22T05:22:34.723Z,23.48
2022-12-22T05:25:07.086Z,24.52
2022-12-22T05:27:38.932Z,22.25
2022-12-22T05:30:11.806Z,24.65
2022-12-22T05:32:46.701Z,23.20
2022-12-22T05:35:18.589Z,23.67
2022-12-22T05:37:50.313Z,21.63
2022-12-22T05:40:22.041Z,24.13
2022-12-22T05:42:54.491Z,22.33
2022-12-22T05:45:26.293Z,20.45
2022-12-22T05:47:58.034Z,20.17
2022-12-22T05:50:29.795Z,19.45
2022-12-22T05:53:08.801Z,21.35
2022-12-22T05:55:40.518Z,22.63
2022-12-22T05:58:12.245Z,20.05
2022-12-22T06:00:43.961Z,20.80
2022-12-22T06:03:15.739Z,19.88
2022-12-22T06:05:50.450Z,20.08
2022-12-22T06:08:22.935Z,24.67
2022-12-22T06:10:55.800Z,23.02
2022-12-22T06:13:27.539Z,23.30
2022-12-22T06:15:59.288Z,22.52
2022-12-22T06:18:31.051Z,20.20
2022-12-22T06:21:02.828Z,18.45
2022-12-22T06:23:34.473Z,19.88
2022-12-22T06:26:06.140Z,18.23
2022-12-22T06:28:37.794Z,21.73
2022-12-22T06:31:09.551Z,18.02
2022-12-22T06:33:41.377Z,18.35
2022-12-22T06:36:13.116Z,19.10
2022-12-22T06:38:44.850Z,18.92
2022-12-22T06:41:36.488Z,18.40
2022-12-22T06:44:08.121Z,17.70
2022-12-22T06:46:39.865Z,18.33
2022-12-22T06:49:12.074Z,18.77
2022-12-22T06:51:43.817Z,16.45
2022-12-22T06:54:18.444Z,16.45
2022-12-22T06:56:54.085Z,17.48
2022-12-22T06:59:25.832Z,16.65
2022-12-22T07:01:57.563Z,16.92
2022-12-22T07:04:30.814Z,17.80
2022-12-22T07:07:02.651Z,16.30
2022-12-22T07:09:34.357Z,17.63
2022-12-22T07:12:06.269Z,16.92
2022-12-22T07:14:37.944Z,17.85
2022-12-22T07:17:09.663Z,16.13
2022-12-22T07:19:41.959Z,18.48
2022-12-22T07:22:13.637Z,19.65
2022-12-22T07:24:45.303Z,16.30
2022-12-22T07:27:17.158Z,19.30
2022-12-22T07:29:48.864Z,24.55
2022-12-22T07:32:20.555Z,23.40
2022-12-22T07:34:52.289Z,15.98
2022-12-22T07:37:23.980Z,16.10
2022-12-22T07:39:55.627Z,16.20
2022-12-22T07:42:47.715Z,22.88
2022-12-22T07:45:20.126Z,17.10
2022-12-22T07:47:52.374Z,16.30
2022-12-22T07:50:27.999Z,18.75
2022-12-22T07:53:04.319Z,15.50
2022-12-22T07:55:36.789Z,14.38
2022-12-22T07:58:08.483Z,17.25
2022-12-22T08:00:40.187Z,15.45
2022-12-22T08:03:12.041Z,15.30
2022-12-22T08:05:45.536Z,15.25
2022-12-22T08:08:17.261Z,15.57
2022-12-22T08:10:49.059Z,15.77
2022-12-22T08:13:20.778Z,14.45
2022-12-22T08:15:52.568Z,19.25
2022-12-22T08:18:27.196Z,15.52
2022-12-22T08:20:58.918Z,15.70
2022-12-22T08:23:31.397Z,13.65
2022-12-22T08:26:16.550Z,15.07
2022-12-22T08:31:27.383Z,13.65
2022-12-22T08:34:04.448Z,13.85
2022-12-22T08:36:42.049Z,13.20
2022-12-22T08:39:14.894Z,17.70
2022-12-22T08:41:53.624Z,19.38
2022-12-22T08:44:30.738Z,15.68
2022-12-22T08:47:02.535Z,12.23
2022-12-22T08:49:34.346Z,13.88
2022-12-22T08:52:06.067Z,12.48
2022-12-22T08:54:37.739Z,14.40
2022-12-22T08:57:09.887Z,12.43
2022-12-22T08:59:41.908Z,12.75
2022-12-22T09:02:13.996Z,12.55
2022-12-22T09:04:45.796Z,13.55
2022-12-22T09:07:18.391Z,13.55
2022-12-22T09:09:50.572Z,11.82
2022-12-22T09:12:22.724Z,13.18
2022-12-22T09:14:54.506Z,11.13
2022-12-22T09:17:26.362Z,14.40
2022-12-22T09:19:58.087Z,12.43
2022-12-22T09:22:29.814Z,11.95
2022-12-22T09:25:01.532Z,11.90
2022-12-22T09:27:33.229Z,11.48
2022-12-22T09:30:05.579Z,12.95
2022-12-22T09:32:37.318Z,12.35
2022-12-22T09:35:09.280Z,12.80
2022-12-22T09:37:40.993Z,10.73
2022-12-22T09:40:13.057Z,12.98
2022-12-22T09:42:44.976Z,10.15
2022-12-22T09:45:20.270Z,9.60
2022-12-22T09:47:54.176Z,10.90
2022-12-22T09:50:27.656Z,10.00
2022-12-22T09:53:02.964Z,10.88
2022-12-22T09:55:47.369Z,10.35
2022-12-22T09:58:33.619Z,9.25
2022-12-22T10:01:05.321Z,11.35
2022-12-22T10:04:00.407Z,10.90
2022-12-22T10:06:42.506Z,11.00
2022-12-22T10:09:48.040Z,11.10
2022-12-22T10:12:17.408Z,9.75
2022-12-22T10:14:51.862Z,9.88
2022-12-22T10:17:34.397Z,10.45
2022-12-22T10:20:08.195Z,11.35
2022-12-22T10:22:48.211Z,9.90
2022-12-22T10:26:17.214Z,9.40
2022-12-22T10:28:40.791Z,8.30
2022-12-22T10:31:20.969Z,11.30
2022-12-22T10:33:57.578Z,10.98
2022-12-22T10:36:32.326Z,9.70
2022-12-22T10:41:40.210Z,11.05
2022-12-22T10:44:21.985Z,12.77
2022-12-22T10:46:56.492Z,12.50
2022-12-22T10:49:29.831Z,10.88
2022-12-22T10:52:16.222Z,11.57
2022-12-22T10:54:48.247Z,9.85
2022-12-22T10:57:20.298Z,9.50
2022-12-22T11:00:21.369Z,10.20
2022-12-22T11:02:58.719Z,9.43
2022-12-22T11:05:32.456Z,7.55
2022-12-22T11:08:18.439Z,8.95
2022-12-22T11:11:07.288Z,9.07
2022-12-22T11:13:38.974Z,9.20
2022-12-22T11:16:22.565Z,9.18
2022-12-22T11:19:29.986Z,9.18
2022-12-22T11:22:24.639Z,8.15
2022-12-22T11:25:23.592Z,7.15
2022-12-22T11:28:11.049Z,9.95
2022-12-22T11:31:04.165Z,7.80
2022-12-22T11:34:20.856Z,11.23
2022-12-22T11:37:13.706Z,8.20
2022-12-22T11:39:53.018Z,9.05
2022-12-22T11:43:23.446Z,7.30
2022-12-22T11:46:26.822Z,18.73
2022-12-22T11:49:11.447Z,20.67
2022-12-22T11:52:08.747Z,8.68
2022-12-22T11:54:52.906Z,8.70
2022-12-22T11:58:01.010Z,8.30
2022-12-22T12:01:12.771Z,8.43
2022-12-22T12:04:10.288Z,7.95
2022-12-22T12:07:09.110Z,7.63
2022-12-22T12:09:53.860Z,7.50
2022-12-22T12:12:35.781Z,10.00
2022-12-22T12:15:37.920Z,7.50
2022-12-22T12:18:47.363Z,8.93
2022-12-22T12:21:29.980Z,8.10
2022-12-22T12:24:42.472Z,10.70
2022-12-22T12:27:41.710Z,7.10
2022-12-22T12:33:15.301Z,9.05
2022-12-22T12:36:02.592Z,8.23
2022-12-22T12:39:13.445Z,5.60
2022-12-22T12:41:49.994Z,7.60
2022-12-22T12:44:26.506Z,5.88
2022-12-22T12:47:22.067Z,9.07
2022-12-22T12:49:53.767Z,7.10
2022-12-22T12:52:40.795Z,6.88
2022-12-22T12:55:32.247Z,5.93
2022-12-22T12:58:10.195Z,6.45
2022-12-22T13:00:50.816Z,6.93
2022-12-22T13:03:53.343Z,4.88
2022-12-22T13:06:49.976Z,5.75
2022-12-22T13:12:53.921Z,10.30
2022-12-22T13:15:38.192Z,5.95
2022-12-22T13:18:25.733Z,8.60
2022-12-22T13:21:51.789Z,8.13
2022-12-22T13:24:24.754Z,6.40
2022-12-22T13:27:04.618Z,4.80
2022-12-22T13:29:42.576Z,6.07
2022-12-22T13:32:35.891Z,7.15
2022-12-22T13:35:49.159Z,6.50
2022-12-22T13:38:37.282Z,5.65
2022-12-22T13:41:27.930Z,8.95
2022-12-22T13:44:11.929Z,5.45
2022-12-22T13:46:44.580Z,8.52
2022-12-22T13:49:36.159Z,6.20
2022-12-22T13:52:14.853Z,7.68
2022-12-22T13:54:49.914Z,6.38
2022-12-22T13:57:22.367Z,6.85
2022-12-22T13:59:55.116Z,6.40
2022-12-22T14:02:33.390Z,5.72
2022-12-22T14:05:11.561Z,6.55
2022-12-22T14:08:04.364Z,5.00
2022-12-22T14:10:39.023Z,6.15
2022-12-22T14:16:00.935Z,6.25
2022-12-22T14:18:33.541Z,6.68
2022-12-22T14:21:06.370Z,4.38
2022-12-22T14:23:43.293Z,4.63
2022-12-22T14:26:24.044Z,10.05
2022-12-22T14:28:56.697Z,6.22
2022-12-22T14:31:28.510Z,5.93
2022-12-22T14:34:05.348Z,7.93
2022-12-22T14:36:41.137Z,3.90
2022-12-22T14:39:25.615Z,4.75
2022-12-22T14:42:01.028Z,5.40
2022-12-22T14:44:43.835Z,5.82
2022-12-22T14:47:18.883Z,7.75
2022-12-22T14:50:01.322Z,6.43
2022-12-22T14:52:59.254Z,3.55
2022-12-22T14:55:36.777Z,8.20
2022-12-22T14:58:38.758Z,4.18
2022-12-22T15:01:28.464Z,4.40
2022-12-22T15:04:02.651Z,6.65
2022-12-22T15:06:40.678Z,4.38
2022-12-22T15:09:15.418Z,4.60
2022-12-22T15:14:35.087Z,4.13
2022-12-22T15:17:21.399Z,6.03
2022-12-22T15:19:57.846Z,4.20
2022-12-22T15:22:29.595Z,4.38
2022-12-22T15:25:04.171Z,6.05
2022-12-22T15:27:35.861Z,4.25
2022-12-22T15:30:08.408Z,4.80
2022-12-22T15:32:41.491Z,4.30
2022-12-22T15:35:25.764Z,5.78
2022-12-22T15:37:57.816Z,3.67
2022-12-22T15:40:29.667Z,6.43
2022-12-22T15:43:01.394Z,3.70
2022-12-22T15:45:33.628Z,4.72
2022-12-22T15:48:10.125Z,3.75
2022-12-22T15:50:44.072Z,4.47
2022-12-22T15:53:19.065Z,3.25
2022-12-22T15:55:53.930Z,3.35
2022-12-22T16:01:00.923Z,4.30
2022-12-22T16:03:32.853Z,4.13
2022-12-22T16:06:06.891Z,9.02
2022-12-22T16:08:40.822Z,5.22
2022-12-22T16:11:12.711Z,4.03
2022-12-22T16:13:45.392Z,3.20
2022-12-22T16:16:20.379Z,3.55
2022-12-22T16:18:52.283Z,4.95
2022-12-22T16:21:31.998Z,3.17
2022-12-22T16:24:04.035Z,2.38
2022-12-22T16:26:36.990Z,4.50
2022-12-22T16:29:15.912Z,3.90
2022-12-22T16:31:49.645Z,3.67
2022-12-22T16:34:21.695Z,4.67
2022-12-22T16:36:53.443Z,4.20
2022-12-22T16:39:25.163Z,3.58
2022-12-22T16:41:59.882Z,2.67
2022-12-22T16:47:26.277Z,3.38
2022-12-22T16:49:59.857Z,3.40
2022-12-22T16:52:38.771Z,3.83
2022-12-22T16:55:22.193Z,6.22
2022-12-22T16:57:54.135Z,3.38
2022-12-22T17:00:31.606Z,2.83
2022-12-22T17:03:15.440Z,2.78
2022-12-22T17:05:59.203Z,5.95
2022-12-22T17:08:39.306Z,3.67
2022-12-22T17:11:18.185Z,2.45
2022-12-22T17:13:54.017Z,2.95
2022-12-22T17:16:25.786Z,3.00
2022-12-22T17:18:57.498Z,4.80
2022-12-22T17:21:29.909Z,4.03
2022-12-22T17:24:04.767Z,5.00
2022-12-22T17:26:36.920Z,5.28
2022-12-22T17:29:20.315Z,3.42
2022-12-22T17:31:56.397Z,4.03
2022-12-22T17:34:28.468Z,8.50
2022-12-22T17:37:00.172Z,9.38
2022-12-22T17:39:33.891Z,4.60
2022-12-22T17:42:21.065Z,3.00
2022-12-22T17:44:53.295Z,7.45
2022-12-22T17:47:33.377Z,3.00
2022-12-22T17:50:10.438Z,4.82
2022-12-22T17:52:42.424Z,3.90
2022-12-22T17:56:01.308Z,3.03
2022-12-22T17:58:20.952Z,4.78
2022-12-22T18:00:54.695Z,3.33
2022-12-22T18:03:26.393Z,3.28
2022-12-22T18:06:00.076Z,3.60
2022-12-22T18:08:32.029Z,4.85
2022-12-22T18:11:03.782Z,2.75
2022-12-22T18:13:35.690Z,4.55
2022-12-22T18:16:15.292Z,3.50
2022-12-22T18:18:49.707Z,4.45
2022-12-22T18:21:24.155Z,3.92
2022-12-22T18:23:55.968Z,4.35
2022-12-22T18:26:29.967Z,3.38
2022-12-22T18:29:04.128Z,4.38
2022-12-22T18:31:36.568Z,3.65
2022-12-22T18:34:08.296Z,3.50
2022-12-22T18:36:42.472Z,3.95
2022-12-22T18:39:19.012Z,6.25
2022-12-22T18:41:54.266Z,3.90
2022-12-22T18:44:26.117Z,5.35
2022-12-22T18:46:59.938Z,6.72
2022-12-22T18:49:31.737Z,4.97
2022-12-22T18:52:03.929Z,3.75
2022-12-22T18:54:38.131Z,4.65
2022-12-22T18:57:18.258Z,6.70
2022-12-22T18:59:50.204Z,6.93
2022-12-22T19:02:28.061Z,12.00
2022-12-22T19:04:59.846Z,8.38
2022-12-22T19:07:31.543Z,9.57
2022-12-22T19:10:04.651Z,4.47
2022-12-22T19:12:36.443Z,6.72
2022-12-22T19:15:18.985Z,6.50
2022-12-22T19:17:52.055Z,4.93
2022-12-22T19:20:26.746Z,7.45
2022-12-22T19:25:32.215Z,6.03
2022-12-22T19:28:14.297Z,5.80
2022-12-22T19:30:46.073Z,5.82
2022-12-22T19:33:41.568Z,4.05
2022-12-22T19:38:52.223Z,6.40
2022-12-22T19:41:38.474Z,5.93
2022-12-22T19:44:28.007Z,5.38
2022-12-22T19:47:03.041Z,4.53
2022-12-22T19:49:34.737Z,4.18
2022-12-22T19:52:06.570Z,6.00
2022-12-22T19:54:38.503Z,9.07
2022-12-22T19:57:18.141Z,7.35
2022-12-22T19:59:52.305Z,3.95
2022-12-22T20:02:31.449Z,4.00
2022-12-22T20:05:03.395Z,5.85
2022-12-22T20:07:37.026Z,6.38
2022-12-22T20:10:08.855Z,5.68
2022-12-22T20:12:42.829Z,6.57
2022-12-22T20:15:18.900Z,4.70
2022-12-22T20:17:52.293Z,4.65
2022-12-22T20:20:31.032Z,4.63
2022-12-22T20:23:06.711Z,4.03
2022-12-22T20:25:41.864Z,4.15
2022-12-22T20:28:17.895Z,3.58
2022-12-22T20:30:50.576Z,4.32
2022-12-22T20:33:24.140Z,5.10
2022-12-22T20:35:58.308Z,4.17
2022-12-22T20:38:33.381Z,4.33
2022-12-22T20:41:07.479Z,7.20
2022-12-22T20:43:39.444Z,6.10
2022-12-22T20:46:14.179Z,5.35
2022-12-22T20:51:31.527Z,4.45
2022-12-22T20:54:03.379Z,4.57
2022-12-22T20:56:38.439Z,5.32
2022-12-22T20:59:22.281Z,5.57
2022-12-22T21:01:54.725Z,5.68
2022-12-22T21:04:29.381Z,5.03
2022-12-22T21:07:01.470Z,6.40
2022-12-22T21:09:33.249Z,4.53
2022-12-22T21:12:05.913Z,5.55
2022-12-22T21:14:40.547Z,6.72
2022-12-22T21:17:16.637Z,8.65
2022-12-22T21:19:48.489Z,5.22
2022-12-22T21:22:21.816Z,6.82
2022-12-22T21:24:54.519Z,6.82
2022-12-22T21:27:26.649Z,6.18
2022-12-22T21:29:58.376Z,6.10
2022-12-22T21:32:30.112Z,5.70
2022-12-22T21:35:07.810Z,6.20
2022-12-22T21:37:40.923Z,6.70
2022-12-22T21:40:25.283Z,8.55
2022-12-22T21:42:58.112Z,8.77
2022-12-22T21:45:31.582Z,5.75
2022-12-22T21:48:03.602Z,7.22
2022-12-22T21:50:35.656Z,6.97
2022-12-22T21:53:09.053Z,7.63
2022-12-22T21:55:41.711Z,6.85
2022-12-22T21:58:15.072Z,7.80
2022-12-22T22:00:49.063Z,7.47
2022-12-22T22:03:20.807Z,8.90
2022-12-22T22:05:53.967Z,8.45
2022-12-22T22:08:25.709Z,7.05
2022-12-22T22:10:58.995Z,7.00
2022-12-22T22:13:30.784Z,6.88
2022-12-22T22:16:02.627Z,6.32
2022-12-22T22:18:35.108Z,6.82
2022-12-22T22:21:11.899Z,6.50
2022-12-22T22:23:46.893Z,8.38
2022-12-22T22:26:18.625Z,7.05
2022-12-22T22:28:53.411Z,7.13
2022-12-22T22:33:56.837Z,9.02
2022-12-22T22:36:28.623Z,6.63
2022-12-22T22:39:01.841Z,6.90
2022-12-22T22:41:39.268Z,7.93
2022-12-22T22:44:14.555Z,6.72
2022-12-22T22:46:46.268Z,5.95
2022-12-22T22:49:21.376Z,6.20
2022-12-22T22:51:59.359Z,8.70
2022-12-22T22:54:31.090Z,5.97
2022-12-22T22:57:02.808Z,7.10
2022-12-22T22:59:34.716Z,7.18
2022-12-22T23:02:06.540Z,6.22
2022-12-22T23:04:38.402Z,5.80
2022-12-22T23:07:11.350Z,6.45
2022-12-22T23:09:43.071Z,6.53
2022-12-22T23:12:15.017Z,6.15
2022-12-22T23:14:46.791Z,7.90
2022-12-22T23:17:18.517Z,8.02
2022-12-22T23:19:50.242Z,6.05
2022-12-22T23:22:24.772Z,8.15
2022-12-22T23:24:56.535Z,5.35
2022-12-22T23:27:28.293Z,5.35
2022-12-22T23:30:00.066Z,5.30
2022-12-22T23:32:34.534Z,6.90
2022-12-22T23:35:07.160Z,6.95
2022-12-22T23:37:38.829Z,4.63
2022-12-22T23:40:50.270Z,5.85
2022-12-22T23:43:02.834Z,8.18
2022-12-22T23:45:34.595Z,7.57
2022-12-22T23:48:07.812Z,8.23
2022-12-22T23:50:39.504Z,7.97
2022-12-22T23:53:11.315Z,6.70
2022-12-22T23:55:47.589Z,7.30
2022-12-22T23:58:20.126Z,5.80
